Terminal Aerodrome Forecast
Issued by NWS Upton, NY

Home | Current Version | Previous Version | Text Only | Print | Product List | Glossary On
Versions: 1 2 3 4 5 6 7 8 9 10 11 12 13 14 15 16 17 18 19 20 21 22 23 24 25 26 27
000
FTUS41 KOKX 161700
TAFISP
TAF
KISP 161732Z 1618/1718 15004KT 6SM BR SCT025 OVC050
     FM162100 26008KT P6SM SCT050 SCT150
     FM170200 34005KT P6SM FEW050 SCT250
     FM170500 35005KT P6SM SKC
     FM171300 02007KT P6SM SKC=

USA.gov is the U.S. government's official web portal to all federal, state and local government web resources and services.